createdAt,value
2022-11-19T00:00:47.709Z,28.52
2022-11-19T00:03:14.833Z,30.55
2022-11-19T00:05:41.776Z,25.60
2022-11-19T00:08:08.517Z,28.40
2022-11-19T00:10:35.895Z,27.35
2022-11-19T00:13:02.874Z,28.27
2022-11-19T00:15:29.373Z,28.95
2022-11-19T00:17:58.510Z,26.90
2022-11-19T00:20:25.284Z,24.23
2022-11-19T00:22:53.235Z,26.92
2022-11-19T00:25:20.370Z,24.98
2022-11-19T00:27:46.923Z,25.23
2022-11-19T00:30:32.558Z,19.98
2022-11-19T00:32:59.858Z,24.65
2022-11-19T00:35:26.112Z,20.40
2022-11-19T00:37:52.341Z,20.40
2022-11-19T00:40:18.581Z,20.10
2022-11-19T00:43:04.820Z,21.58
2022-11-19T00:45:31.114Z,17.88
2022-11-19T00:47:57.402Z,21.67
2022-11-19T00:50:23.680Z,21.08
2022-11-19T00:52:49.938Z,21.02
2022-11-19T00:55:16.208Z,21.27
2022-11-19T00:57:42.496Z,21.02
2022-11-19T01:00:09.167Z,22.33
2022-11-19T01:02:35.443Z,18.58
2022-11-19T01:05:01.712Z,18.83
2022-11-19T01:07:28.075Z,18.38
2022-11-19T01:09:54.395Z,17.42
2022-11-19T01:12:20.708Z,18.13
2022-11-19T01:14:47.105Z,18.02
2022-11-19T01:17:13.372Z,19.23
2022-11-19T01:19:39.660Z,19.75
2022-11-19T01:22:05.936Z,18.13
2022-11-19T01:24:32.202Z,17.30
2022-11-19T01:26:58.486Z,19.13
2022-11-19T01:29:24.786Z,17.70
2022-11-19T01:31:51.066Z,17.95
2022-11-19T01:34:17.341Z,16.30
2022-11-19T01:36:43.622Z,17.50
2022-11-19T01:39:09.886Z,17.98
2022-11-19T01:41:36.184Z,16.77
2022-11-19T01:44:04.375Z,14.57
2022-11-19T01:46:32.204Z,18.70
2022-11-19T01:49:04.320Z,17.05
2022-11-19T01:51:32.889Z,17.65
2022-11-19T01:54:00.582Z,17.13
2022-11-19T01:56:27.768Z,16.25
2022-11-19T01:58:58.740Z,15.85
2022-11-19T02:01:25.063Z,15.00
2022-11-19T02:03:52.450Z,16.23
2022-11-19T02:06:18.746Z,16.40
2022-11-19T02:08:46.172Z,15.15
2022-11-19T02:11:19.166Z,14.30
2022-11-19T02:14:00.526Z,14.13
2022-11-19T02:16:39.436Z,14.75
2022-11-19T02:19:29.521Z,14.25
2022-11-19T02:22:06.982Z,15.68
2022-11-19T02:24:33.237Z,14.23
2022-11-19T02:27:08.257Z,14.07
2022-11-19T02:29:44.065Z,15.05
2022-11-19T02:32:15.676Z,14.18
2022-11-19T02:34:54.776Z,13.10
2022-11-19T02:37:21.038Z,13.23
2022-11-19T02:39:52.834Z,13.77
2022-11-19T02:42:24.745Z,12.98
2022-11-19T02:45:02.978Z,13.98
2022-11-19T02:47:43.966Z,13.27
2022-11-19T02:50:16.111Z,13.45
2022-11-19T02:52:46.399Z,12.82
2022-11-19T02:55:16.787Z,12.27
2022-11-19T02:57:44.899Z,11.35
2022-11-19T03:00:29.897Z,11.43
2022-11-19T03:03:26.145Z,12.07
2022-11-19T03:05:54.817Z,12.27
2022-11-19T03:08:21.433Z,11.68
2022-11-19T03:10:47.735Z,11.60
2022-11-19T03:13:55.248Z,10.38
2022-11-19T03:16:41.942Z,10.70
2022-11-19T03:19:11.681Z,11.80
2022-11-19T03:21:45.856Z,12.60
2022-11-19T03:24:14.137Z,11.60
2022-11-19T03:26:42.632Z,11.63
2022-11-19T03:29:10.572Z,12.30
2022-11-19T03:31:38.775Z,11.75
2022-11-19T03:34:09.861Z,12.90
2022-11-19T03:36:37.884Z,11.40
2022-11-19T03:39:05.775Z,12.35
2022-11-19T03:41:34.288Z,12.63
2022-11-19T03:44:03.138Z,11.27
2022-11-19T03:46:30.769Z,12.02
2022-11-19T03:48:57.662Z,13.85
2022-11-19T03:51:35.516Z,11.52
2022-11-19T03:54:01.798Z,12.13
2022-11-19T03:56:29.132Z,10.88
2022-11-19T03:58:55.433Z,10.45
2022-11-19T04:01:22.378Z,12.60
2022-11-19T04:04:07.137Z,11.07
2022-11-19T04:06:33.488Z,12.30
2022-11-19T04:08:59.757Z,12.07
2022-11-19T04:13:51.270Z,12.73
2022-11-19T04:16:17.550Z,12.18
2022-11-19T04:18:43.853Z,12.30
2022-11-19T04:21:10.132Z,13.48
2022-11-19T04:23:36.402Z,11.70
2022-11-19T04:26:02.676Z,11.90
2022-11-19T04:28:28.998Z,13.05
2022-11-19T04:30:55.294Z,12.63
2022-11-19T04:33:21.562Z,13.27
2022-11-19T04:35:47.843Z,13.83
2022-11-19T04:38:14.097Z,12.05
2022-11-19T04:40:41.555Z,13.60
2022-11-19T04:43:07.826Z,13.43
2022-11-19T04:45:34.097Z,13.80
2022-11-19T04:48:00.375Z,13.68
2022-11-19T04:50:26.645Z,13.10
2022-11-19T04:52:53.042Z,12.83
2022-11-19T04:55:19.314Z,15.03
2022-11-19T04:57:45.618Z,13.20
2022-11-19T05:00:12.211Z,13.90
2022-11-19T05:02:38.480Z,14.85
2022-11-19T05:05:04.914Z,14.10
2022-11-19T05:07:31.348Z,14.15
2022-11-19T05:09:57.682Z,15.50
2022-11-19T05:12:23.961Z,13.93
2022-11-19T05:14:50.245Z,15.00
2022-11-19T05:17:16.664Z,14.10
2022-11-19T05:19:43.147Z,13.20
2022-11-19T05:22:09.450Z,13.43
2022-11-19T05:24:35.722Z,14.53
2022-11-19T05:27:02.353Z,14.53
2022-11-19T05:29:28.637Z,14.50
2022-11-19T05:31:54.922Z,15.90
2022-11-19T05:34:21.388Z,13.87
2022-11-19T05:36:47.670Z,13.67
2022-11-19T05:39:20.256Z,14.87
2022-11-19T05:41:48.060Z,15.13
2022-11-19T05:44:14.336Z,14.20
2022-11-19T05:46:40.617Z,13.87
2022-11-19T05:49:06.892Z,14.73
2022-11-19T05:51:33.263Z,14.27
2022-11-19T05:53:59.569Z,13.53
2022-11-19T05:56:25.894Z,14.17
2022-11-19T05:58:52.166Z,14.37
2022-11-19T06:01:24.730Z,14.30
2022-11-19T06:03:51.004Z,14.10
2022-11-19T06:06:17.366Z,15.33
2022-11-19T06:08:43.629Z,14.93
2022-11-19T06:11:29.885Z,15.07
2022-11-19T06:13:56.480Z,13.83
2022-11-19T06:16:22.765Z,15.93
2022-11-19T06:18:49.316Z,15.57
2022-11-19T06:21:15.996Z,15.97
2022-11-19T06:23:42.263Z,15.93
2022-11-19T06:26:08.833Z,15.07
2022-11-19T06:28:35.366Z,16.67
2022-11-19T06:31:01.741Z,18.47
2022-11-19T06:33:28.020Z,14.80
2022-11-19T06:35:54.580Z,14.63
2022-11-19T06:38:20.858Z,15.20
2022-11-19T06:40:47.217Z,14.97
2022-11-19T06:43:13.497Z,15.90
2022-11-19T06:45:39.761Z,15.20
2022-11-19T06:48:06.052Z,14.73
2022-11-19T06:50:32.317Z,15.93
2022-11-19T06:52:58.592Z,16.37
2022-11-19T06:55:24.911Z,16.07
2022-11-19T06:57:51.195Z,18.47
2022-11-19T07:00:17.650Z,16.80
2022-11-19T07:02:44.004Z,14.90
2022-11-19T07:05:10.299Z,16.00
2022-11-19T07:07:36.659Z,16.20
2022-11-19T07:10:03.080Z,17.00
2022-11-19T07:12:29.433Z,16.23
2022-11-19T07:14:59.746Z,15.60
2022-11-19T07:17:29.047Z,16.00
2022-11-19T07:19:55.314Z,18.13
2022-11-19T07:22:21.596Z,15.77
2022-11-19T07:24:47.881Z,15.57
2022-11-19T07:27:15.222Z,17.90
2022-11-19T07:29:41.543Z,16.00
2022-11-19T07:32:07.860Z,15.03
2022-11-19T07:34:34.206Z,16.58
2022-11-19T07:37:00.517Z,16.50
2022-11-19T07:39:26.790Z,16.27
2022-11-19T07:42:11.872Z,16.37
2022-11-19T07:44:38.132Z,14.47
2022-11-19T07:47:06.461Z,14.67
2022-11-19T07:49:32.734Z,16.73
2022-11-19T07:51:59.183Z,16.83
2022-11-19T07:54:25.509Z,17.13
2022-11-19T07:56:51.784Z,17.07
2022-11-19T07:59:18.458Z,16.03
2022-11-19T08:01:45.196Z,15.33
2022-11-19T08:04:11.510Z,16.47
2022-11-19T08:06:38.263Z,14.98
2022-11-19T08:09:05.134Z,15.53
2022-11-19T08:11:31.454Z,16.33
2022-11-19T08:14:03.874Z,14.77
2022-11-19T08:16:51.048Z,15.80
2022-11-19T08:19:17.990Z,13.20
2022-11-19T08:21:45.862Z,13.80
2022-11-19T08:24:12.560Z,12.93
2022-11-19T08:26:38.942Z,12.55
2022-11-19T08:29:05.476Z,14.37
2022-11-19T08:31:31.778Z,13.10
2022-11-19T08:33:58.081Z,13.17
2022-11-19T08:36:24.368Z,13.25
2022-11-19T08:38:50.748Z,14.47
2022-11-19T08:41:35.631Z,12.63
2022-11-19T08:44:02.470Z,13.52
2022-11-19T08:46:28.833Z,16.25
2022-11-19T08:48:55.232Z,14.23
2022-11-19T08:51:21.499Z,13.63
2022-11-19T08:53:47.802Z,11.75
2022-11-19T08:56:17.989Z,12.40
2022-11-19T09:01:11.885Z,11.73
2022-11-19T09:03:38.686Z,10.90
2022-11-19T09:06:05.430Z,10.73
2022-11-19T09:08:32.001Z,12.10
2022-11-19T09:10:58.289Z,10.95
2022-11-19T09:13:24.932Z,11.17
2022-11-19T09:15:51.779Z,12.15
2022-11-19T09:18:18.360Z,10.40
2022-11-19T09:20:44.709Z,11.63
2022-11-19T09:23:11.004Z,11.60
2022-11-19T09:25:37.268Z,11.23
2022-11-19T09:28:03.816Z,10.75
2022-11-19T09:30:30.101Z,10.52
2022-11-19T09:32:58.753Z,10.13
2022-11-19T09:35:25.192Z,11.25
2022-11-19T09:37:51.472Z,9.43
2022-11-19T09:40:19.317Z,9.77
2022-11-19T09:42:45.696Z,9.77
2022-11-19T09:45:27.428Z,8.77
2022-11-19T09:48:02.902Z,9.38
2022-11-19T09:50:31.127Z,10.30
2022-11-19T09:53:00.234Z,9.85
2022-11-19T09:55:31.704Z,8.10
2022-11-19T09:57:58.729Z,9.80
2022-11-19T10:00:26.995Z,9.73
2022-11-19T10:02:53.982Z,9.40
2022-11-19T10:05:29.195Z,9.05
2022-11-19T10:07:55.575Z,8.68
2022-11-19T10:10:27.743Z,8.07
2022-11-19T10:12:53.996Z,8.20
2022-11-19T10:15:37.649Z,7.72
2022-11-19T10:18:10.660Z,7.88
2022-11-19T10:20:53.943Z,7.85
2022-11-19T10:23:28.176Z,8.20
2022-11-19T10:26:00.294Z,8.27
2022-11-19T10:28:29.193Z,9.35
2022-11-19T10:31:04.117Z,9.10
2022-11-19T10:33:40.261Z,8.65
2022-11-19T10:36:09.573Z,8.05
2022-11-19T10:38:41.815Z,8.23
2022-11-19T10:41:40.221Z,8.05
2022-11-19T10:44:35.330Z,9.70
2022-11-19T10:47:01.624Z,7.20
2022-11-19T10:49:27.915Z,8.90
2022-11-19T10:51:54.220Z,7.70
2022-11-19T10:54:25.496Z,7.45
2022-11-19T10:56:52.267Z,6.60
2022-11-19T10:59:26.132Z,6.75
2022-11-19T11:02:15.999Z,6.18
2022-11-19T11:04:59.734Z,6.95
2022-11-19T11:07:49.520Z,5.15
2022-11-19T11:13:01.410Z,4.25
2022-11-19T11:15:27.742Z,5.30
2022-11-19T11:18:07.468Z,5.18
2022-11-19T11:20:33.857Z,4.57
2022-11-19T11:23:11.254Z,4.65
2022-11-19T11:25:40.820Z,5.07
2022-11-19T11:28:10.228Z,4.53
2022-11-19T11:30:36.597Z,5.53
2022-11-19T11:33:21.632Z,4.88
2022-11-19T11:35:48.026Z,4.97
2022-11-19T11:38:14.562Z,4.80
2022-11-19T11:40:41.161Z,5.38
2022-11-19T11:43:15.704Z,5.07
2022-11-19T11:45:42.026Z,5.22
2022-11-19T11:48:16.163Z,5.47
2022-11-19T11:50:45.123Z,4.55
2022-11-19T11:53:15.238Z,4.75
2022-11-19T11:58:28.760Z,5.05
2022-11-19T12:01:15.272Z,5.18
2022-11-19T12:03:55.522Z,5.20
2022-11-19T12:06:23.577Z,4.88
2022-11-19T12:09:08.572Z,6.45
2022-11-19T12:11:54.728Z,6.13
2022-11-19T12:14:23.130Z,6.78
2022-11-19T12:16:56.003Z,5.68
2022-11-19T12:19:41.458Z,5.68
2022-11-19T12:22:07.761Z,6.03
2022-11-19T12:24:39.857Z,5.80
2022-11-19T12:27:06.130Z,5.28
2022-11-19T12:29:32.390Z,6.43
2022-11-19T12:32:01.847Z,5.85
2022-11-19T12:34:34.143Z,5.63
2022-11-19T12:37:00.415Z,6.05
2022-11-19T12:39:39.376Z,5.78
2022-11-19T12:42:08.713Z,5.95
2022-11-19T12:44:55.715Z,6.82
2022-11-19T12:47:21.955Z,6.78
2022-11-19T12:49:48.221Z,5.53
2022-11-19T12:52:23.632Z,5.85
2022-11-19T12:54:56.568Z,5.85
2022-11-19T12:57:28.812Z,5.10
2022-11-19T12:59:55.310Z,6.03
2022-11-19T13:02:25.650Z,5.82
2022-11-19T13:04:54.816Z,6.10
2022-11-19T13:07:28.607Z,5.20
2022-11-19T13:10:00.685Z,4.65
2022-11-19T13:12:31.935Z,4.70
2022-11-19T13:15:00.831Z,4.93
2022-11-19T13:17:44.480Z,4.20
2022-11-19T13:20:17.828Z,4.63
2022-11-19T13:22:46.484Z,4.72
2022-11-19T13:25:15.749Z,3.90
2022-11-19T13:27:43.218Z,4.10
2022-11-19T13:30:18.669Z,4.13
2022-11-19T13:33:08.258Z,3.85
2022-11-19T13:35:43.059Z,3.38
2022-11-19T13:38:31.526Z,4.30
2022-11-19T13:41:08.094Z,3.38
2022-11-19T13:43:53.264Z,4.70
2022-11-19T13:46:27.663Z,3.53
2022-11-19T13:49:02.749Z,2.72
2022-11-19T13:51:34.491Z,3.10
2022-11-19T13:54:03.585Z,3.45
2022-11-19T13:56:37.766Z,2.83
2022-11-19T13:59:04.300Z,2.42
2022-11-19T14:01:49.521Z,3.33
2022-11-19T14:04:18.917Z,2.08
2022-11-19T14:06:55.088Z,3.72
2022-11-19T14:09:40.490Z,2.97
2022-11-19T14:12:12.819Z,3.80
2022-11-19T14:14:57.855Z,3.22
2022-11-19T14:17:49.323Z,3.92
2022-11-19T14:20:51.508Z,2.90
2022-11-19T14:23:55.121Z,3.10
2022-11-19T14:26:39.486Z,3.35
2022-11-19T14:29:26.011Z,3.55
2022-11-19T14:32:02.692Z,3.35
2022-11-19T14:34:30.677Z,4.18
2022-11-19T14:36:57.959Z,4.25
2022-11-19T14:39:28.465Z,4.15
2022-11-19T14:42:16.516Z,4.20
2022-11-19T14:44:44.471Z,4.80
2022-11-19T14:47:22.591Z,5.57
2022-11-19T14:49:50.072Z,4.97
2022-11-19T14:52:21.436Z,4.25
2022-11-19T14:54:53.344Z,4.18
2022-11-19T14:57:31.080Z,4.45
2022-11-19T15:00:00.260Z,4.07
2022-11-19T15:02:31.020Z,3.85
2022-11-19T15:05:14.490Z,4.00
2022-11-19T15:07:43.399Z,4.40
2022-11-19T15:10:09.817Z,3.80
2022-11-19T15:12:45.162Z,4.70
2022-11-19T15:15:20.728Z,4.25
2022-11-19T15:18:04.946Z,4.00
2022-11-19T15:20:37.155Z,4.53
2022-11-19T15:23:03.409Z,4.43
2022-11-19T15:25:32.708Z,5.68
2022-11-19T15:28:09.231Z,5.90
2022-11-19T15:30:48.001Z,4.65
2022-11-19T15:33:22.874Z,5.85
2022-11-19T15:35:52.340Z,5.60
2022-11-19T15:38:21.611Z,5.70
2022-11-19T15:40:49.517Z,5.53
2022-11-19T15:43:22.353Z,5.93
2022-11-19T15:45:56.989Z,5.65
2022-11-19T15:48:29.124Z,5.05
2022-11-19T15:50:55.579Z,5.45
2022-11-19T15:53:23.055Z,5.68
2022-11-19T15:55:58.217Z,5.40
2022-11-19T15:58:25.774Z,7.03
2022-11-19T16:00:52.994Z,7.40
2022-11-19T16:03:19.500Z,6.53
2022-11-19T16:06:00.560Z,6.95
2022-11-19T16:08:27.370Z,6.55
2022-11-19T16:11:19.970Z,7.07
2022-11-19T16:14:13.847Z,7.45
2022-11-19T16:16:58.639Z,9.05
2022-11-19T16:19:25.057Z,12.45
2022-11-19T16:21:53.708Z,13.63
2022-11-19T16:24:39.735Z,14.85
2022-11-19T16:27:09.832Z,14.57
2022-11-19T16:29:38.963Z,19.05
2022-11-19T16:32:05.838Z,16.20
2022-11-19T16:34:33.092Z,12.13
2022-11-19T16:36:59.558Z,11.10
2022-11-19T16:39:27.316Z,13.05
2022-11-19T16:42:16.142Z,14.57
2022-11-19T16:44:47.416Z,10.95
2022-11-19T16:47:28.383Z,11.43
2022-11-19T16:49:57.389Z,11.85
2022-11-19T16:52:43.994Z,10.82
2022-11-19T16:55:19.424Z,11.33
2022-11-19T16:57:46.998Z,11.82
2022-11-19T17:00:15.233Z,13.73
2022-11-19T17:02:41.613Z,12.02
2022-11-19T17:05:09.509Z,16.33
2022-11-19T17:07:36.301Z,14.40
2022-11-19T17:10:31.140Z,13.17
2022-11-19T17:13:17.674Z,17.23
2022-11-19T17:15:44.914Z,13.93
2022-11-19T17:18:14.752Z,17.57
2022-11-19T17:20:43.857Z,16.63
2022-11-19T17:23:13.879Z,20.30
2022-11-19T17:25:46.461Z,20.65
2022-11-19T17:28:17.741Z,19.98
2022-11-19T17:30:44.476Z,20.77
2022-11-19T17:33:13.213Z,23.00
2022-11-19T17:35:40.798Z,22.47
2022-11-19T17:38:18.367Z,20.27
2022-11-19T17:40:49.540Z,20.90
2022-11-19T17:43:36.989Z,19.23
2022-11-19T17:46:03.316Z,18.87
2022-11-19T17:48:29.677Z,20.17
2022-11-19T17:50:57.690Z,19.73
2022-11-19T17:53:24.004Z,19.52
2022-11-19T17:55:52.633Z,17.92
2022-11-19T17:58:18.901Z,20.33
2022-11-19T18:00:45.182Z,18.57
2022-11-19T18:03:12.070Z,18.37
2022-11-19T18:05:39.064Z,19.10
2022-11-19T18:08:05.347Z,18.73
2022-11-19T18:10:31.641Z,18.70
2022-11-19T18:12:57.920Z,18.43
2022-11-19T18:15:24.223Z,19.77
2022-11-19T18:17:50.515Z,19.97
2022-11-19T18:20:16.901Z,19.50
2022-11-19T18:22:43.453Z,18.17
2022-11-19T18:25:14.608Z,19.97
2022-11-19T18:27:40.896Z,20.83
2022-11-19T18:30:07.450Z,21.23
2022-11-19T18:32:33.749Z,20.60
2022-11-19T18:35:01.954Z,20.67
2022-11-19T18:37:29.291Z,19.80
2022-11-19T18:39:55.727Z,18.70
2022-11-19T18:42:22.048Z,21.27
2022-11-19T18:44:48.364Z,20.80
2022-11-19T18:47:15.337Z,21.07
2022-11-19T18:49:41.831Z,21.10
2022-11-19T18:52:09.245Z,21.70
2022-11-19T18:54:35.523Z,20.13
2022-11-19T18:57:02.347Z,23.03
2022-11-19T18:59:29.863Z,20.33
2022-11-19T19:01:56.231Z,20.20
2022-11-19T19:04:23.120Z,20.40
2022-11-19T19:06:50.015Z,20.83
2022-11-19T19:09:20.246Z,21.40
2022-11-19T19:12:11.173Z,21.27
2022-11-19T19:14:39.163Z,23.93
2022-11-19T19:17:05.472Z,20.73
2022-11-19T19:19:31.804Z,22.53
2022-11-19T19:21:58.161Z,21.30
2022-11-19T19:24:25.005Z,21.97
2022-11-19T19:26:51.599Z,24.10
2022-11-19T19:29:17.985Z,22.20
2022-11-19T19:31:44.264Z,21.50
2022-11-19T19:34:10.578Z,24.17
2022-11-19T19:36:36.831Z,21.17
2022-11-19T19:39:03.541Z,23.20
2022-11-19T19:41:29.905Z,23.37
2022-11-19T19:43:59.269Z,22.63
2022-11-19T19:46:25.730Z,22.20
2022-11-19T19:48:53.026Z,24.13
2022-11-19T19:51:20.635Z,24.23
2022-11-19T19:53:47.276Z,24.17
2022-11-19T19:56:15.103Z,22.43
2022-11-19T19:58:45.419Z,22.47
2022-11-19T20:01:13.196Z,22.45
2022-11-19T20:03:39.618Z,21.87
2022-11-19T20:06:06.795Z,20.87
2022-11-19T20:08:34.064Z,22.63
2022-11-19T20:11:11.233Z,21.97
2022-11-19T20:13:37.525Z,21.70
2022-11-19T20:16:11.900Z,22.73
2022-11-19T20:18:41.273Z,23.13
2022-11-19T20:21:11.709Z,22.33
2022-11-19T20:23:38.215Z,22.40
2022-11-19T20:26:05.887Z,22.77
2022-11-19T20:28:32.169Z,22.47
2022-11-19T20:31:05.774Z,21.70
2022-11-19T20:33:32.145Z,22.87
2022-11-19T20:35:58.427Z,21.63
2022-11-19T20:38:24.803Z,22.40
2022-11-19T20:40:58.509Z,20.73
2022-11-19T20:43:48.854Z,19.03
2022-11-19T20:46:19.039Z,20.73
2022-11-19T20:48:46.437Z,20.43
2022-11-19T20:51:13.541Z,20.13
2022-11-19T20:53:39.814Z,20.07
2022-11-19T20:56:06.503Z,20.87
2022-11-19T20:58:32.781Z,21.77
2022-11-19T21:01:03.700Z,18.77
2022-11-19T21:03:30.346Z,21.13
2022-11-19T21:05:57.929Z,23.30
2022-11-19T21:08:25.317Z,24.70
2022-11-19T21:10:55.768Z,19.57
2022-11-19T21:13:22.055Z,17.75
2022-11-19T21:15:48.350Z,21.03
2022-11-19T21:18:14.893Z,18.80
2022-11-19T21:20:41.178Z,20.17
2022-11-19T21:23:07.449Z,18.30
2022-11-19T21:25:34.654Z,18.87
2022-11-19T21:28:00.926Z,21.10
2022-11-19T21:30:27.214Z,19.57
2022-11-19T21:32:53.525Z,20.13
2022-11-19T21:35:19.838Z,20.13
2022-11-19T21:37:46.144Z,20.30
2022-11-19T21:40:12.460Z,20.43
2022-11-19T21:42:38.737Z,22.57
2022-11-19T21:45:05.305Z,24.60
2022-11-19T21:47:31.624Z,23.73
2022-11-19T21:50:00.855Z,22.10
2022-11-19T21:52:28.147Z,23.73
2022-11-19T21:54:54.425Z,24.37
2022-11-19T21:57:20.848Z,25.70
2022-11-19T21:59:47.195Z,26.23
2022-11-19T22:02:13.739Z,25.93
2022-11-19T22:04:40.029Z,25.47
2022-11-19T22:07:06.488Z,26.83
2022-11-19T22:09:32.823Z,28.40
2022-11-19T22:11:59.101Z,26.70
2022-11-19T22:14:25.494Z,25.00
2022-11-19T22:16:54.448Z,25.83
2022-11-19T22:19:21.151Z,22.03
2022-11-19T22:21:47.660Z,24.23
2022-11-19T22:24:14.009Z,25.63
2022-11-19T22:26:40.378Z,24.07
2022-11-19T22:29:06.648Z,22.60
2022-11-19T22:31:32.926Z,24.27
2022-11-19T22:33:59.560Z,24.70
2022-11-19T22:36:25.898Z,24.73
2022-11-19T22:38:52.367Z,20.77
2022-11-19T22:41:19.513Z,22.57
2022-11-19T22:43:46.034Z,23.77
2022-11-19T22:46:13.082Z,22.40
2022-11-19T22:48:39.732Z,22.27
2022-11-19T22:51:07.806Z,26.40
2022-11-19T22:53:37.657Z,24.83
2022-11-19T22:56:04.914Z,27.35
2022-11-19T22:58:31.341Z,25.47
2022-11-19T23:00:57.650Z,23.60
2022-11-19T23:03:24.044Z,23.97
2022-11-19T23:05:51.143Z,26.70
2022-11-19T23:08:17.692Z,26.97
2022-11-19T23:10:44.298Z,27.43
2022-11-19T23:13:33.076Z,24.00
2022-11-19T23:16:08.717Z,24.13
2022-11-19T23:18:36.213Z,23.90
2022-11-19T23:21:04.401Z,22.13
2022-11-19T23:23:30.795Z,20.93
2022-11-19T23:25:57.882Z,20.83
2022-11-19T23:28:24.828Z,22.87
2022-11-19T23:30:51.505Z,20.77
2022-11-19T23:33:17.842Z,22.83
2022-11-19T23:35:44.117Z,22.10
2022-11-19T23:38:10.613Z,22.00
2022-11-19T23:40:37.169Z,21.07
2022-11-19T23:43:03.824Z,21.27
2022-11-19T23:45:30.092Z,22.63
2022-11-19T23:47:56.377Z,22.20
2022-11-19T23:50:22.682Z,21.37
2022-11-19T23:52:48.971Z,23.00
2022-11-19T23:55:15.264Z,22.60
2022-11-19T23:57:41.566Z,21.63
